createdAt,value
2018-09-03T00:01:06.871Z,92.42
2018-09-03T00:03:35.153Z,91.97
2018-09-03T00:06:03.412Z,90.90
2018-09-03T00:08:31.698Z,90.70
2018-09-03T00:10:59.955Z,90.70
2018-09-03T00:13:28.375Z,90.51
2018-09-03T00:15:56.637Z,91.15
2018-09-03T00:18:24.933Z,90.74
2018-09-03T00:20:53.200Z,90.70
2018-09-03T00:23:21.501Z,91.14
2018-09-03T00:25:49.773Z,89.89
2018-09-03T00:28:18.044Z,90.08
2018-09-03T00:30:46.305Z,89.67
2018-09-03T00:33:19.872Z,89.95
2018-09-03T00:35:53.256Z,90.17
2018-09-03T00:38:26.800Z,90.64
2018-09-03T00:41:00.349Z,90.86
2018-09-03T00:43:33.974Z,90.82
2018-09-03T00:46:07.413Z,90.59
2018-09-03T00:48:35.788Z,90.34
2018-09-03T00:51:04.146Z,90.47
2018-09-03T00:53:32.416Z,90.53
2018-09-03T00:56:00.681Z,90.56
2018-09-03T00:58:28.955Z,90.50
2018-09-03T01:00:57.209Z,91.16
2018-09-03T01:03:25.517Z,91.19
2018-09-03T01:05:53.787Z,91.43
2018-09-03T01:08:22.077Z,90.77
2018-09-03T01:10:50.371Z,91.19
2018-09-03T01:13:18.689Z,91.27
2018-09-03T01:15:46.949Z,91.21
2018-09-03T01:18:15.245Z,91.40
2018-09-03T01:20:43.521Z,91.22
2018-09-03T01:23:11.852Z,90.78
2018-09-03T01:25:40.121Z,91.09
2018-09-03T01:28:08.379Z,91.71
2018-09-03T01:30:36.651Z,91.58
2018-09-03T01:33:05.401Z,91.59
2018-09-03T01:35:33.676Z,91.37
2018-09-03T01:38:01.929Z,91.63
2018-09-03T01:40:30.204Z,91.92
2018-09-03T01:42:58.553Z,90.98
2018-09-03T01:45:26.844Z,89.07
2018-09-03T01:47:55.249Z,89.51
2018-09-03T01:50:23.601Z,90.46
2018-09-03T01:52:51.841Z,90.70
2018-09-03T01:55:20.089Z,89.72
2018-09-03T01:57:48.413Z,89.97
2018-09-03T02:00:16.658Z,89.05
2018-09-03T02:02:44.968Z,89.52
2018-09-03T02:05:13.217Z,89.60
2018-09-03T02:07:41.489Z,89.46
2018-09-03T02:10:09.733Z,89.90
2018-09-03T02:12:38.000Z,89.65
2018-09-03T02:15:06.568Z,90.63
2018-09-03T02:17:34.861Z,90.29
2018-09-03T02:20:03.133Z,89.69
2018-09-03T02:22:31.402Z,91.68
2018-09-03T02:24:59.646Z,91.22
2018-09-03T02:27:27.943Z,91.56
2018-09-03T02:29:56.825Z,91.23
2018-09-03T02:32:25.061Z,91.64
2018-09-03T02:34:53.338Z,91.48
2018-09-03T02:37:21.584Z,91.26
2018-09-03T02:39:49.872Z,91.66
2018-09-03T02:42:18.135Z,91.19
2018-09-03T02:44:46.475Z,91.80
2018-09-03T02:47:14.725Z,90.89
2018-09-03T02:49:43.046Z,91.05
2018-09-03T02:52:11.289Z,91.09
2018-09-03T02:54:39.609Z,91.22
2018-09-03T02:57:07.897Z,91.08
2018-09-03T02:59:36.201Z,91.66
2018-09-03T03:02:04.881Z,91.25
2018-09-03T03:04:33.158Z,91.31
2018-09-03T03:07:01.416Z,91.08
2018-09-03T03:09:29.685Z,90.22
2018-09-03T03:11:57.961Z,89.72
2018-09-03T03:14:26.259Z,90.58
2018-09-03T03:16:54.513Z,90.87
2018-09-03T03:19:22.794Z,91.21
2018-09-03T03:21:51.056Z,91.73
2018-09-03T03:24:20.465Z,91.58
2018-09-03T03:26:48.717Z,92.55
2018-09-03T03:29:16.974Z,93.32
2018-09-03T03:31:45.276Z,93.45
2018-09-03T03:34:13.521Z,93.02
2018-09-03T03:36:41.813Z,92.40
2018-09-03T03:39:10.233Z,93.36
2018-09-03T03:41:38.598Z,93.56
2018-09-03T03:44:07.345Z,93.78
2018-09-03T03:46:35.662Z,93.69
2018-09-03T03:49:03.925Z,93.23
2018-09-03T03:51:32.219Z,93.64
2018-09-03T03:54:00.461Z,93.26
2018-09-03T03:56:28.749Z,93.25
2018-09-03T03:58:57.045Z,93.08
2018-09-03T04:01:25.370Z,93.55
2018-09-03T04:03:54.705Z,93.59
2018-09-03T04:06:22.989Z,93.24
2018-09-03T04:08:51.283Z,92.65
2018-09-03T04:11:19.542Z,92.69
2018-09-03T04:13:47.817Z,93.04
2018-09-03T04:16:16.078Z,92.43
2018-09-03T04:18:44.370Z,92.43
2018-09-03T04:21:12.630Z,93.28
2018-09-03T04:23:40.924Z,93.67
2018-09-03T04:26:09.213Z,94.02
2018-09-03T04:28:37.520Z,93.63
2018-09-03T04:31:05.778Z,93.47
2018-09-03T04:33:34.064Z,93.54
2018-09-03T04:36:03.197Z,92.88
2018-09-03T04:38:31.702Z,94.67
2018-09-03T04:40:59.939Z,95.17
2018-09-03T04:43:28.238Z,94.04
2018-09-03T04:45:56.507Z,93.82
2018-09-03T04:48:24.839Z,94.19
2018-09-03T04:50:53.119Z,94.16
2018-09-03T04:53:22.433Z,93.34
2018-09-03T04:55:50.713Z,93.43
2018-09-03T04:58:20.429Z,93.80
2018-09-03T05:00:48.681Z,93.74
2018-09-03T05:03:17.065Z,93.52
2018-09-03T05:05:45.442Z,93.36
2018-09-03T05:08:13.693Z,93.27
2018-09-03T05:10:41.949Z,93.81
2018-09-03T05:13:10.228Z,93.53
2018-09-03T05:15:38.703Z,93.00
2018-09-03T05:18:07.049Z,94.13
2018-09-03T05:20:35.338Z,92.88
2018-09-03T05:23:03.657Z,91.91
2018-09-03T05:25:31.930Z,92.01
2018-09-03T05:28:00.239Z,91.65
2018-09-03T05:30:28.525Z,91.62
2018-09-03T05:32:57.041Z,91.53
2018-09-03T05:35:25.325Z,92.61
2018-09-03T05:37:54.025Z,92.69
2018-09-03T05:40:22.274Z,92.83
2018-09-03T05:42:50.541Z,92.12
2018-09-03T05:45:18.837Z,92.32
2018-09-03T05:47:47.097Z,92.94
2018-09-03T05:50:15.567Z,93.13
2018-09-03T05:52:43.773Z,92.55
2018-09-03T05:55:12.345Z,92.33
2018-09-03T05:57:40.605Z,91.52
2018-09-03T06:00:09.225Z,91.47
2018-09-03T06:02:37.479Z,90.99
2018-09-03T06:05:06.207Z,90.33
2018-09-03T06:07:34.465Z,90.82
2018-09-03T06:10:02.762Z,90.52
2018-09-03T06:12:31.033Z,91.05
2018-09-03T06:14:59.357Z,90.37
2018-09-03T06:18:56.789Z,89.95
2018-09-03T06:21:25.091Z,90.11
2018-09-03T06:23:53.541Z,89.14
2018-09-03T06:26:21.844Z,88.84
2018-09-03T06:28:50.233Z,88.86
2018-09-03T06:31:19.596Z,88.35
2018-09-03T06:33:47.849Z,87.72
2018-09-03T06:36:16.124Z,88.48
2018-09-03T06:38:44.566Z,87.40
2018-09-03T06:41:12.933Z,88.42
2018-09-03T06:43:41.201Z,87.10
2018-09-03T06:46:09.519Z,86.38
2018-09-03T06:48:37.762Z,85.67
2018-09-03T06:51:06.185Z,86.13
2018-09-03T06:53:34.519Z,85.47
2018-09-03T06:56:02.774Z,85.71
2018-09-03T06:58:31.097Z,85.59
2018-09-03T07:00:59.503Z,85.72
2018-09-03T07:03:27.805Z,86.19
2018-09-03T07:05:56.246Z,85.66
2018-09-03T07:08:24.657Z,85.99
2018-09-03T07:10:52.922Z,85.62
2018-09-03T07:13:22.416Z,85.45
2018-09-03T07:15:51.449Z,85.98
2018-09-03T07:18:19.764Z,84.67
2018-09-03T07:20:48.053Z,84.60
2018-09-03T07:23:16.320Z,84.91
2018-09-03T07:25:44.562Z,83.12
2018-09-03T07:28:12.912Z,82.27
2018-09-03T07:30:41.161Z,82.73
2018-09-03T07:33:09.429Z,82.20
2018-09-03T07:35:37.748Z,83.26
2018-09-03T07:38:06.153Z,83.65
2018-09-03T07:40:34.398Z,84.40
2018-09-03T07:43:02.676Z,84.85
2018-09-03T07:45:30.986Z,84.42
2018-09-03T07:48:00.322Z,84.25
2018-09-03T07:50:28.614Z,83.98
2018-09-03T07:52:56.854Z,82.77
2018-09-03T07:55:25.121Z,82.32
2018-09-03T07:57:53.362Z,82.03
2018-09-03T08:00:21.736Z,81.92
2018-09-03T08:02:49.995Z,80.10
2018-09-03T08:05:18.257Z,80.10
2018-09-03T08:07:46.493Z,80.86
2018-09-03T08:10:14.773Z,80.01
2018-09-03T08:12:43.097Z,80.56
2018-09-03T08:15:11.373Z,80.27
2018-09-03T08:17:39.608Z,80.51
2018-09-03T08:20:07.980Z,80.33
2018-09-03T08:22:36.196Z,81.56
2018-09-03T08:25:04.530Z,81.94
2018-09-03T08:27:32.769Z,81.79
2018-09-03T08:30:01.010Z,82.69
2018-09-03T08:32:29.281Z,82.78
2018-09-03T08:34:57.525Z,81.97
2018-09-03T08:37:25.810Z,82.00
2018-09-03T08:39:54.317Z,81.77
2018-09-03T08:42:22.615Z,81.02
2018-09-03T08:44:50.989Z,81.54
2018-09-03T08:47:19.213Z,82.32
2018-09-03T08:49:47.457Z,81.63
2018-09-03T08:52:15.741Z,81.53
2018-09-03T08:54:44.009Z,81.01
2018-09-03T08:57:12.374Z,81.01
2018-09-03T08:59:40.654Z,80.10
2018-09-03T09:02:09.121Z,81.21
2018-09-03T09:04:37.385Z,80.10
2018-09-03T09:07:05.701Z,80.44
2018-09-03T09:09:34.003Z,78.90
2018-09-03T09:12:02.282Z,77.74
2018-09-03T09:14:30.553Z,77.06
2018-09-03T09:16:58.869Z,77.00
2018-09-03T09:19:27.137Z,73.54
2018-09-03T09:21:55.415Z,71.71
2018-09-03T09:24:23.721Z,69.61
2018-09-03T09:26:51.946Z,68.53
2018-09-03T09:29:20.210Z,68.60
2018-09-03T09:31:48.581Z,69.54
2018-09-03T09:34:16.841Z,70.42
2018-09-03T09:36:45.108Z,68.44
2018-09-03T09:39:13.390Z,70.52
2018-09-03T09:41:41.644Z,70.46
2018-09-03T09:44:09.949Z,72.64
2018-09-03T09:46:38.213Z,72.97
2018-09-03T09:49:06.533Z,71.39
2018-09-03T09:51:34.773Z,72.83
2018-09-03T09:54:03.107Z,72.74
2018-09-03T09:56:31.395Z,71.62
2018-09-03T09:58:59.737Z,69.59
2018-09-03T10:01:33.157Z,67.94
2018-09-03T10:04:01.758Z,66.87
2018-09-03T10:06:30.028Z,66.98
2018-09-03T10:08:58.713Z,66.68
2018-09-03T10:11:27.483Z,65.00
2018-09-03T10:13:55.801Z,64.91
2018-09-03T10:16:24.132Z,66.85
2018-09-03T10:18:52.521Z,67.44
2018-09-03T10:21:20.793Z,68.05
2018-09-03T10:23:49.133Z,65.69
2018-09-03T10:26:17.460Z,65.31
2018-09-03T10:28:45.846Z,64.53
2018-09-03T10:31:14.131Z,66.00
2018-09-03T10:33:42.383Z,66.77
2018-09-03T10:36:10.733Z,68.21
2018-09-03T10:38:39.002Z,69.23
2018-09-03T10:41:07.689Z,70.33
2018-09-03T10:43:36.022Z,70.89
2018-09-03T10:46:04.317Z,69.65
2018-09-03T10:48:32.600Z,67.59
2018-09-03T10:51:00.886Z,65.98
2018-09-03T10:53:29.150Z,66.78
2018-09-03T10:55:57.433Z,67.90
2018-09-03T10:58:26.738Z,67.43
2018-09-03T11:00:55.001Z,68.00
2018-09-03T11:03:23.277Z,66.80
2018-09-03T11:05:51.529Z,67.04
2018-09-03T11:08:19.809Z,67.12
2018-09-03T11:10:48.124Z,66.57
2018-09-03T11:13:16.399Z,64.98
2018-09-03T11:15:44.660Z,64.01
2018-09-03T11:18:12.945Z,64.29
2018-09-03T11:20:41.201Z,64.31
2018-09-03T11:23:09.469Z,63.15
2018-09-03T11:25:37.768Z,63.02
2018-09-03T11:28:06.085Z,62.90
2018-09-03T11:30:34.370Z,63.82
2018-09-03T11:33:03.589Z,64.41
2018-09-03T11:35:31.862Z,63.22
2018-09-03T11:38:00.161Z,62.72
2018-09-03T11:40:28.458Z,62.52
2018-09-03T11:42:56.780Z,62.33
2018-09-03T11:45:25.161Z,62.98
2018-09-03T11:47:53.469Z,62.75
2018-09-03T11:50:21.906Z,63.83
2018-09-03T11:52:50.151Z,63.87
2018-09-03T11:55:19.489Z,63.90
2018-09-03T11:57:47.822Z,63.47
2018-09-03T12:00:23.382Z,64.16
2018-09-03T12:02:51.646Z,64.28
2018-09-03T12:05:19.964Z,64.66
2018-09-03T12:07:48.250Z,64.55
2018-09-03T12:10:16.597Z,64.17
2018-09-03T12:12:44.849Z,64.52
2018-09-03T12:16:20.386Z,66.11
2018-09-03T12:18:48.656Z,65.74
2018-09-03T12:21:17.213Z,64.14
2018-09-03T12:23:45.579Z,63.61
2018-09-03T12:26:13.884Z,63.92
2018-09-03T12:28:42.138Z,62.50
2018-09-03T12:31:10.533Z,63.71
2018-09-03T12:33:38.745Z,64.53
2018-09-03T12:36:07.200Z,64.76
2018-09-03T12:38:35.650Z,64.84
2018-09-03T12:41:04.491Z,64.83
2018-09-03T12:43:32.763Z,64.08
2018-09-03T12:46:04.548Z,63.51
2018-09-03T12:48:33.405Z,63.71
2018-09-03T12:51:02.599Z,63.08
2018-09-03T12:53:31.470Z,61.52
2018-09-03T12:55:59.969Z,62.45
2018-09-03T12:58:28.282Z,63.25
2018-09-03T13:00:56.620Z,63.33
2018-09-03T13:03:24.903Z,62.26
2018-09-03T13:05:53.217Z,62.49
2018-09-03T13:08:21.468Z,62.47
2018-09-03T13:10:49.785Z,62.02
2018-09-03T13:13:18.085Z,60.29
2018-09-03T13:15:46.337Z,61.98
2018-09-03T13:18:14.609Z,60.54
2018-09-03T13:20:42.963Z,61.03
2018-09-03T13:23:11.277Z,62.23
2018-09-03T13:25:40.565Z,61.34
2018-09-03T13:28:08.833Z,61.51
2018-09-03T13:30:37.102Z,60.78
2018-09-03T13:33:05.373Z,58.86
2018-09-03T13:35:33.630Z,56.88
2018-09-03T13:38:02.100Z,52.87
2018-09-03T13:40:30.344Z,48.27
2018-09-03T13:42:58.613Z,46.88
2018-09-03T13:45:26.885Z,47.19
2018-09-03T13:47:55.343Z,49.20
2018-09-03T13:50:23.645Z,52.09
2018-09-03T13:52:51.925Z,55.92
2018-09-03T13:55:20.229Z,55.66
2018-09-03T13:57:48.547Z,56.51
2018-09-03T14:00:16.863Z,58.46
2018-09-03T14:07:35.141Z,57.01
2018-09-03T14:10:03.480Z,58.31
2018-09-03T14:12:31.777Z,58.42
2018-09-03T14:15:00.162Z,58.45
2018-09-03T14:17:29.113Z,58.69
2018-09-03T14:19:58.955Z,57.96
2018-09-03T14:22:27.262Z,55.63
2018-09-03T14:24:55.591Z,54.02
2018-09-03T14:27:24.125Z,54.09
2018-09-03T14:29:52.641Z,54.10
2018-09-03T14:32:21.179Z,55.40
2018-09-03T14:34:49.549Z,58.00
2018-09-03T14:37:17.817Z,58.62
2018-09-03T14:39:46.126Z,57.89
2018-09-03T14:42:14.582Z,57.21
2018-09-03T14:44:42.907Z,58.89
2018-09-03T14:47:11.178Z,58.74
2018-09-03T14:49:39.543Z,60.13
2018-09-03T14:52:07.812Z,60.56
2018-09-03T14:54:36.117Z,59.71
2018-09-03T14:57:04.549Z,59.78
2018-09-03T14:59:32.885Z,59.51
2018-09-03T15:02:01.212Z,59.82
2018-09-03T15:04:30.502Z,59.35
2018-09-03T15:06:58.814Z,57.88
2018-09-03T15:09:27.082Z,57.33
2018-09-03T15:11:55.392Z,55.87
2018-09-03T15:14:23.641Z,51.37
2018-09-03T15:16:51.919Z,43.89
2018-09-03T15:19:20.233Z,40.00
2018-09-03T15:21:48.518Z,39.15
2018-09-03T15:24:17.257Z,36.74
2018-09-03T15:26:45.571Z,36.87
2018-09-03T15:29:13.795Z,39.78
2018-09-03T15:31:42.094Z,36.45
2018-09-03T15:34:10.349Z,37.33
2018-09-03T15:36:38.741Z,38.09
2018-09-03T15:39:10.493Z,37.48
2018-09-03T15:41:38.784Z,36.83
2018-09-03T15:44:07.441Z,36.45
2018-09-03T15:46:35.761Z,38.13
2018-09-03T15:49:04.088Z,35.06
2018-09-03T15:51:32.330Z,34.21
2018-09-03T15:54:00.653Z,33.11
2018-09-03T15:56:29.001Z,34.49
2018-09-03T15:58:57.282Z,35.20
2018-09-03T16:01:25.541Z,36.82
2018-09-03T16:03:53.837Z,36.83
2018-09-03T16:06:22.114Z,40.23
2018-09-03T16:08:50.432Z,40.54
2018-09-03T16:11:18.742Z,41.18
2018-09-03T16:13:47.027Z,42.35
2018-09-03T16:16:15.277Z,44.09
2018-09-03T16:18:43.562Z,42.89
2018-09-03T16:21:11.901Z,42.64
2018-09-03T16:23:40.186Z,41.05
2018-09-03T16:26:08.429Z,43.96
2018-09-03T16:28:36.787Z,47.70
2018-09-03T16:31:05.166Z,45.15
2018-09-03T16:33:33.470Z,45.80
2018-09-03T16:37:05.098Z,47.14
2018-09-03T16:39:33.369Z,49.79
2018-09-03T16:42:01.688Z,50.13
2018-09-03T16:44:29.935Z,49.16
2018-09-03T16:46:58.189Z,54.60
2018-09-03T16:49:26.471Z,59.92
2018-09-03T16:51:54.754Z,63.13
2018-09-03T16:54:23.057Z,64.81
2018-09-03T16:56:51.417Z,65.96
2018-09-03T16:59:19.905Z,66.43
2018-09-03T17:01:48.214Z,67.52
2018-09-03T17:04:16.517Z,67.55
2018-09-03T17:06:44.852Z,69.29
2018-09-03T17:09:13.161Z,69.51
2018-09-03T17:11:41.457Z,69.62
2018-09-03T17:14:09.702Z,71.01
2018-09-03T17:16:38.095Z,72.12
2018-09-03T17:19:06.540Z,72.82
2018-09-03T17:21:34.951Z,73.12
2018-09-03T17:24:03.225Z,73.91
2018-09-03T17:26:31.541Z,74.20
2018-09-03T17:28:59.801Z,73.68
2018-09-03T17:31:28.138Z,75.70
2018-09-03T17:33:56.397Z,76.46
2018-09-03T17:36:24.710Z,76.29
2018-09-03T17:38:52.989Z,75.97
2018-09-03T17:41:21.345Z,76.39
2018-09-03T17:43:49.621Z,76.85
2018-09-03T17:46:17.929Z,77.75
2018-09-03T17:48:46.233Z,78.28
2018-09-03T17:51:14.531Z,78.99
2018-09-03T17:53:42.924Z,79.87
2018-09-03T17:56:11.213Z,80.69
2018-09-03T17:58:39.505Z,79.84
2018-09-03T18:01:07.741Z,80.88
2018-09-03T18:03:36.246Z,80.45
2018-09-03T18:06:04.541Z,80.88
2018-09-03T18:08:32.840Z,81.04
2018-09-03T18:11:01.089Z,81.39
2018-09-03T18:13:29.369Z,81.32
2018-09-03T18:15:57.648Z,81.41
2018-09-03T18:18:25.946Z,81.55
2018-09-03T18:20:54.217Z,81.70
2018-09-03T18:23:22.513Z,81.68
2018-09-03T18:25:50.754Z,82.92
2018-09-03T18:28:19.035Z,83.04
2018-09-03T18:30:47.340Z,82.24
2018-09-03T18:33:15.613Z,82.09
2018-09-03T18:35:43.916Z,82.97
2018-09-03T18:38:12.222Z,82.87
2018-09-03T18:40:40.958Z,83.86
2018-09-03T18:43:09.238Z,84.11
2018-09-03T18:45:37.509Z,84.39
2018-09-03T18:48:05.966Z,84.15
2018-09-03T18:50:34.216Z,84.82
2018-09-03T18:53:02.529Z,83.96
2018-09-03T18:55:30.817Z,84.48
2018-09-03T18:57:59.070Z,84.38
2018-09-03T19:00:28.148Z,85.05
2018-09-03T19:02:56.389Z,84.66
2018-09-03T19:05:24.682Z,85.35
2018-09-03T19:07:52.957Z,85.23
2018-09-03T19:10:21.239Z,85.61
2018-09-03T19:12:49.497Z,85.35
2018-09-03T19:15:17.773Z,86.14
2018-09-03T19:17:46.046Z,85.83
2018-09-03T19:20:14.379Z,86.88
2018-09-03T19:22:42.633Z,87.21
2018-09-03T19:25:10.937Z,86.50
2018-09-03T19:27:39.264Z,86.47
2018-09-03T19:30:07.741Z,85.92
2018-09-03T19:32:35.988Z,86.75
2018-09-03T19:35:04.376Z,86.28
2018-09-03T19:37:32.645Z,87.05
2018-09-03T19:40:00.962Z,87.05
2018-09-03T19:42:29.241Z,87.54
2018-09-03T19:44:57.514Z,87.49
2018-09-03T19:47:25.797Z,88.10
2018-09-03T19:49:54.170Z,88.30
2018-09-03T19:52:22.468Z,88.24
2018-09-03T19:54:50.709Z,88.37
2018-09-03T19:57:19.300Z,88.36
2018-09-03T19:59:47.865Z,88.70
2018-09-03T20:02:16.141Z,88.54
2018-09-03T20:04:46.497Z,88.47
2018-09-03T20:07:14.786Z,89.09
2018-09-03T20:09:43.045Z,88.82
2018-09-03T20:12:11.398Z,90.01
2018-09-03T20:14:39.694Z,90.26
2018-09-03T20:17:07.998Z,90.27
2018-09-03T20:19:36.276Z,89.93
2018-09-03T20:22:04.593Z,90.53
2018-09-03T20:24:33.985Z,90.44
2018-09-03T20:27:02.259Z,91.15
2018-09-03T20:29:30.505Z,91.91
2018-09-03T20:31:58.789Z,91.65
2018-09-03T20:34:27.062Z,92.15
2018-09-03T20:36:55.356Z,92.77
2018-09-03T20:39:23.601Z,92.79
2018-09-03T20:41:51.961Z,92.55
2018-09-03T20:44:20.325Z,92.42
2018-09-03T20:46:48.615Z,92.51
2018-09-03T20:49:17.469Z,92.99
2018-09-03T20:51:46.158Z,92.54
2018-09-03T20:54:14.437Z,93.23
2018-09-03T20:56:42.706Z,93.70
2018-09-03T20:59:10.993Z,93.49
2018-09-03T21:01:39.419Z,93.65
2018-09-03T21:04:07.743Z,92.85
2018-09-03T21:06:38.030Z,93.42
2018-09-03T21:09:07.962Z,94.14
2018-09-03T21:11:36.291Z,93.99
2018-09-03T21:14:13.332Z,93.54
2018-09-03T21:16:41.636Z,94.55
2018-09-03T21:19:10.410Z,94.17
2018-09-03T21:21:39.025Z,94.62
2018-09-03T21:24:08.396Z,94.67
2018-09-03T21:26:36.733Z,93.85
2018-09-03T21:29:05.330Z,95.02
2018-09-03T21:31:33.613Z,94.63
2018-09-03T21:34:02.075Z,94.78
2018-09-03T21:36:30.357Z,94.45
2018-09-03T21:38:59.374Z,94.65
2018-09-03T21:41:28.069Z,94.57
2018-09-03T21:43:56.744Z,94.39
2018-09-03T21:46:25.215Z,95.17
2018-09-03T21:48:53.617Z,94.59
2018-09-03T21:51:22.569Z,94.22
2018-09-03T21:53:50.875Z,94.64
2018-09-03T21:56:19.169Z,94.47
2018-09-03T21:58:47.438Z,94.46
2018-09-03T22:01:15.772Z,94.21
2018-09-03T22:03:44.084Z,94.62
2018-09-03T22:06:12.432Z,94.65
2018-09-03T22:08:40.768Z,94.52
2018-09-03T22:11:09.183Z,95.03
2018-09-03T22:13:37.516Z,95.25
2018-09-03T22:16:07.997Z,95.32
2018-09-03T22:18:37.425Z,95.28
2018-09-03T22:21:05.988Z,94.67
2018-09-03T22:23:34.414Z,95.36
2018-09-03T22:26:02.689Z,95.58
2018-09-03T22:28:32.024Z,95.38
2018-09-03T22:31:00.302Z,94.78
2018-09-03T22:33:28.588Z,94.56
2018-09-03T22:35:57.053Z,93.60
2018-09-03T22:38:25.929Z,94.13
2018-09-03T22:40:54.212Z,93.97
2018-09-03T22:43:23.543Z,92.96
2018-09-03T22:45:51.867Z,92.48
2018-09-03T22:48:20.356Z,92.39
2018-09-03T22:50:48.665Z,91.83
2018-09-03T22:53:16.987Z,91.38
2018-09-03T22:55:45.667Z,91.09
2018-09-03T22:58:13.973Z,91.92
2018-09-03T23:00:42.264Z,91.54
2018-09-03T23:03:10.647Z,92.29
2018-09-03T23:05:38.944Z,92.05
2018-09-03T23:08:07.229Z,92.69
2018-09-03T23:10:35.516Z,92.65
2018-09-03T23:13:03.957Z,92.63
2018-09-03T23:15:33.364Z,92.50
2018-09-03T23:18:01.741Z,92.19
2018-09-03T23:20:31.122Z,92.54
2018-09-03T23:22:59.493Z,91.99
2018-09-03T23:25:27.822Z,92.17
2018-09-03T23:27:56.109Z,92.75
2018-09-03T23:30:24.410Z,92.81
2018-09-03T23:32:52.688Z,93.06
2018-09-03T23:35:21.102Z,93.33
2018-09-03T23:37:49.386Z,93.42
2018-09-03T23:40:17.685Z,93.45
2018-09-03T23:42:46.013Z,93.61
2018-09-03T23:45:14.337Z,93.54
2018-09-03T23:47:42.629Z,93.79
2018-09-03T23:50:10.983Z,93.35
2018-09-03T23:52:39.246Z,94.04
2018-09-03T23:55:07.556Z,94.46
2018-09-03T23:57:35.829Z,95.02
